Time;durP1;ratioP1;P1;durP2;ratioP2;P2;SDS_P1;SDS_P2;PMS_P1;PMS_P2;Temp;Humidity;BMP_temperature;BMP_pressure;BME280_temperature;BME280_humidity;BME280_pressure;Samples;Min_cycle;Max_cycle;Signal;HPM_P1;HPM_P2
2022/02/15 00:00:06;;;;;;;;;;;;;;;;;;2212982;59;1912;-69
2022/02/15 00:02:39;;;;;;;;;;;;;;;;;;2213630;67;1304;-69
2022/02/15 00:05:15;;;;;;;;;;;;;;;;;;2212065;59;1675;-69
2022/02/15 00:07:48;;;;;;;;;;;;;;;;;;2211893;67;989;-69
2022/02/15 00:10:22;;;;;;;;;;;;;;;;;;2213129;67;1108;-69
2022/02/15 00:12:55;;;;;;;;;;;;;;;;;;2211581;67;1108;-69
2022/02/15 00:15:28;;;;;;;;;;;;;;;;;;2213105;67;1187;-69
2022/02/15 00:18:02;;;;;;;;;;;;;;;;;;2211630;59;1483;-69
2022/02/15 00:20:38;;;;;;;;;;;;;;;;;;2211450;59;1933;-69
2022/02/15 00:23:11;;;;;;;;;;;;;;;;;;2212613;59;1290;-69
2022/02/15 00:25:44;;;;;;;;;;;;;;;;;;2210606;59;1730;-69
2022/02/15 00:28:18;;;;;;;;;;;;;;;;;;2211126;67;1077;-68
2022/02/15 00:30:51;;;;;;;;;;;;;;;;;;2212752;67;1121;-68
2022/02/15 00:33:24;;;;;;;;;;;;;;;;;;2212228;67;1168;-69
2022/02/15 00:36:00;;;;;;;;;;;;;;;;;;2212919;66;1269;-68
2022/02/15 00:38:34;;;;;;;;;;;;;;;;;;2212518;67;1271;-69
2022/02/15 00:41:08;;;;;;;;;;;;;;;;;;2211919;67;1938;-69
2022/02/15 00:43:41;;;;;;;;;;;;;;;;;;2212504;59;1436;-69
2022/02/15 00:46:14;;;;;;;;;;;;;;;;;;2211992;59;1733;-69
2022/02/15 00:48:47;;;;;;;;;;;;;;;;;;2212971;59;1495;-68
2022/02/15 00:51:23;;;;;;;;;;;;;;;;;;2212460;67;1123;-69
2022/02/15 00:53:57;;;;;;;;;;;;;;;;;;2211972;59;1203;-69
2022/02/15 00:56:30;;;;;;;;;;;;;;;;;;2212869;67;1283;-69
2022/02/15 00:59:03;;;;;;;;;;;;;;;;;;2212656;67;1935;-68
2022/02/15 01:01:37;;;;;;;;;;;;;;;;;;2212171;67;1131;-68
2022/02/15 01:04:10;;;;;;;;;;;;;;;;;;2213016;67;1180;-70
2022/02/15 01:06:46;;;;;;;;;;;;;;;;;;2210776;59;1897;-69
2022/02/15 01:09:19;;;;;;;;;;;;;;;;;;2211429;59;1085;-68
2022/02/15 01:11:52;;;;;;;;;;;;;;;;;;2211199;59;2954;-68
2022/02/15 01:14:26;;;;;;;;;;;;;;;;;;2211539;59;1248;-69
2022/02/15 01:16:59;;;;;;;;;;;;;;;;;;2213507;59;1276;-69
2022/02/15 01:19:33;;;;;;;;;;;;;;;;;;2211636;59;1919;-69
2022/02/15 01:22:09;;;;;;;;;;;;;;;;;;2213243;59;1515;-69
2022/02/15 01:24:42;;;;;;;;;;;;;;;;;;2210643;59;1829;-68
2022/02/15 01:27:16;;;;;;;;;;;;;;;;;;2211768;59;1687;-68
2022/02/15 01:29:49;;;;;;;;;;;;;;;;;;2211651;67;1059;-68
2022/02/15 01:32:22;;;;;;;;;;;;;;;;;;2212404;67;1199;-69
2022/02/15 01:34:55;;;;;;;;;;;;;;;;;;2211889;66;1260;-68
2022/02/15 01:37:31;;;;;;;;;;;;;;;;;;2212652;67;1232;-68
2022/02/15 01:40:05;;;;;;;;;;;;;;;;;;2211648;67;1973;-68
2022/02/15 01:42:38;;;;;;;;;;;;;;;;;;2213674;67;1128;-68
2022/02/15 01:45:12;;;;;;;;;;;;;;;;;;2212564;59;1883;-68
2022/02/15 01:47:46;;;;;;;;;;;;;;;;;;2212268;59;1255;-68
2022/02/15 01:50:20;;;;;;;;;;;;;;;;;;2213036;67;1432;-68
2022/02/15 01:52:56;;;;;;;;;;;;;;;;;;2212500;67;1088;-68
2022/02/15 01:55:29;;;;;;;;;;;;;;;;;;2212058;67;1240;-68
2022/02/15 01:58:02;;;;;;;;;;;;;;;;;;2212928;67;1134;-68
2022/02/15 02:00:36;;;;;;;;;;;;;;;;;;2212661;67;1941;-69
2022/02/15 02:03:09;;;;;;;;;;;;;;;;;;2213196;67;1128;-68
2022/02/15 02:05:48;;;;;;;;;;;;;;;;;;2211604;59;1812;-68
2022/02/15 02:08:25;;;;;;;;;;;;;;;;;;2211663;67;1248;-68
2022/02/15 02:11:00;;;;;;;;;;;;;;;;;;2212106;67;1200;-68
2022/02/15 02:13:34;;;;;;;;;;;;;;;;;;2212432;67;1157;-68
2022/02/15 02:16:08;;;;;;;;;;;;;;;;;;2213492;59;1213;-69
2022/02/15 02:18:41;;;;;;;;;;;;;;;;;;2212789;67;1136;-69
2022/02/15 02:21:17;;;;;;;;;;;;;;;;;;2214006;59;2173;-69
2022/02/15 02:23:50;;;;;;;;;;;;;;;;;;2212792;59;1528;-68
2022/02/15 02:26:24;;;;;;;;;;;;;;;;;;2212207;59;1812;-69
2022/02/15 02:28:58;;;;;;;;;;;;;;;;;;2212371;67;1036;-68
2022/02/15 02:31:31;;;;;;;;;;;;;;;;;;2213370;67;1227;-68
2022/02/15 02:34:04;;;;;;;;;;;;;;;;;;2213032;67;1117;-68
2022/02/15 02:36:46;;;;;;;;;;;;;;;;;;2213660;59;1227;-68
2022/02/15 02:39:20;;;;;;;;;;;;;;;;;;2212519;59;1350;-68
2022/02/15 02:41:53;;;;;;;;;;;;;;;;;;2211108;67;1929;-69
2022/02/15 02:44:26;;;;;;;;;;;;;;;;;;2212905;59;1862;-69
2022/02/15 02:47:00;;;;;;;;;;;;;;;;;;2212855;59;1680;-69
2022/02/15 02:49:33;;;;;;;;;;;;;;;;;;2212908;59;1557;-69
2022/02/15 02:52:10;;;;;;;;;;;;;;;;;;2213665;67;1162;-68
2022/02/15 02:54:43;;;;;;;;;;;;;;;;;;2212937;67;1156;-69
2022/02/15 02:57:17;;;;;;;;;;;;;;;;;;2213791;67;1364;-69
2022/02/15 02:59:50;;;;;;;;;;;;;;;;;;2211438;59;2240;-69
2022/02/15 03:02:24;;;;;;;;;;;;;;;;;;2213242;67;1201;-69
2022/02/15 03:04:57;;;;;;;;;;;;;;;;;;2211643;59;1873;-68
2022/02/15 03:07:34;;;;;;;;;;;;;;;;;;2211888;67;1097;-68
2022/02/15 03:10:07;;;;;;;;;;;;;;;;;;2212182;59;1133;-69
2022/02/15 03:12:41;;;;;;;;;;;;;;;;;;2213529;67;1062;-69
2022/02/15 03:15:14;;;;;;;;;;;;;;;;;;2212036;67;1230;-69
2022/02/15 03:17:47;;;;;;;;;;;;;;;;;;2213012;59;1469;-70
2022/02/15 03:20:21;;;;;;;;;;;;;;;;;;2213281;59;1948;-69
2022/02/15 03:22:57;;;;;;;;;;;;;;;;;;2212571;59;1726;-68
2022/02/15 03:25:31;;;;;;;;;;;;;;;;;;2210868;59;1738;-68
2022/02/15 03:28:04;;;;;;;;;;;;;;;;;;2212167;67;1191;-68
2022/02/15 03:30:37;;;;;;;;;;;;;;;;;;2211272;59;1662;-68
2022/02/15 03:33:11;;;;;;;;;;;;;;;;;;2213149;67;1131;-68
2022/02/15 03:35:44;;;;;;;;;;;;;;;;;;2212802;67;1219;-68
2022/02/15 03:38:21;;;;;;;;;;;;;;;;;;2212865;59;1657;-70
2022/02/15 03:43:57;;;;;;;;;;;;;;;;;;2200576;67;1395;-69
2022/02/15 03:46:30;;;;;;;;;;;;;;;;;;2201014;59;1846;-68
2022/02/15 03:49:10;;;;;;;;;;;;;;;;;;2207230;59;1542;-68
2022/02/15 03:51:44;;;;;;;;;;;;;;;;;;2211501;59;1275;-68
2022/02/15 03:54:20;;;;;;;;;;;;;;;;;;2212729;59;1957;-68
2022/02/15 03:56:53;;;;;;;;;;;;;;;;;;2212969;67;1144;-69
2022/02/15 03:59:27;;;;;;;;;;;;;;;;;;2212730;59;1258;-68
2022/02/15 04:02:00;;;;;;;;;;;;;;;;;;2213227;67;1967;-69
2022/02/15 04:04:33;;;;;;;;;;;;;;;;;;2209447;59;1990;-68
2022/02/15 04:07:07;;;;;;;;;;;;;;;;;;2212298;59;2011;-68
2022/02/15 04:09:43;;;;;;;;;;;;;;;;;;2213843;67;1108;-68
2022/02/15 04:12:16;;;;;;;;;;;;;;;;;;2212370;67;1038;-68
2022/02/15 04:14:49;;;;;;;;;;;;;;;;;;2213410;67;1305;-68
2022/02/15 04:17:22;;;;;;;;;;;;;;;;;;2213009;59;1413;-68
2022/02/15 04:19:56;;;;;;;;;;;;;;;;;;2212771;59;1089;-68
2022/02/15 04:22:29;;;;;;;;;;;;;;;;;;2213088;59;1917;-68
2022/02/15 04:25:05;;;;;;;;;;;;;;;;;;2214806;53;3609;-72
2022/02/15 04:27:39;;;;;;;;;;;;;;;;;;2217081;58;997;-72
2022/02/15 04:30:13;;;;;;;;;;;;;;;;;;2217628;59;1095;-72
2022/02/15 04:32:46;;;;;;;;;;;;;;;;;;2217940;66;1049;-72
2022/02/15 04:35:19;;;;;;;;;;;;;;;;;;2216421;58;1291;-72
2022/02/15 04:37:52;;;;;;;;;;;;;;;;;;2215286;66;1140;-72
2022/02/15 04:40:28;;;;;;;;;;;;;;;;;;2214032;59;1933;-72
2022/02/15 04:43:01;;;;;;;;;;;;;;;;;;2215018;59;1025;-72
2022/02/15 04:45:35;;;;;;;;;;;;;;;;;;2214198;59;1780;-72
2022/02/15 04:48:08;;;;;;;;;;;;;;;;;;2213042;59;1458;-72
2022/02/15 04:50:41;;;;;;;;;;;;;;;;;;2214275;66;1268;-72
2022/02/15 04:53:14;;;;;;;;;;;;;;;;;;2214322;59;1625;-72
2022/02/15 04:55:50;;;;;;;;;;;;;;;;;;2214544;66;1159;-72
2022/02/15 04:58:24;;;;;;;;;;;;;;;;;;2214976;59;1262;-72
2022/02/15 05:00:57;;;;;;;;;;;;;;;;;;2215577;66;1986;-72
2022/02/15 05:03:30;;;;;;;;;;;;;;;;;;2215324;66;1341;-72
2022/02/15 05:06:03;;;;;;;;;;;;;;;;;;2214420;59;1804;-72
2022/02/15 05:08:36;;;;;;;;;;;;;;;;;;2214261;60;1175;-72
2022/02/15 05:11:12;;;;;;;;;;;;;;;;;;2214524;66;1143;-72
2022/02/15 05:13:46;;;;;;;;;;;;;;;;;;2214819;60;1239;-72
2022/02/15 05:16:19;;;;;;;;;;;;;;;;;;2214911;59;1282;-72
2022/02/15 05:18:52;;;;;;;;;;;;;;;;;;2214448;66;1125;-73
2022/02/15 05:21:25;;;;;;;;;;;;;;;;;;2214710;59;1988;-72
2022/02/15 05:23:58;;;;;;;;;;;;;;;;;;2214917;66;1107;-72
2022/02/15 05:26:34;;;;;;;;;;;;;;;;;;2213248;59;1815;-72
2022/02/15 05:29:08;;;;;;;;;;;;;;;;;;2214470;59;1176;-72
2022/02/15 05:31:41;;;;;;;;;;;;;;;;;;2214432;59;1684;-72
2022/02/15 05:34:14;;;;;;;;;;;;;;;;;;2214497;66;1166;-72
2022/02/15 05:36:47;;;;;;;;;;;;;;;;;;2214740;59;1729;-72
2022/02/15 05:39:20;;;;;;;;;;;;;;;;;;2213726;66;1279;-72
2022/02/15 05:41:56;;;;;;;;;;;;;;;;;;2214693;59;1992;-72
2022/02/15 05:44:30;;;;;;;;;;;;;;;;;;2213985;59;1285;-72
2022/02/15 05:47:03;;;;;;;;;;;;;;;;;;2213075;59;1720;-72
2022/02/15 05:50:49;;;;;;;;;;;;;;;;;;2213438;63;1444;-72
2022/02/15 05:52:30;;;;;;;;;;;;;;;;;;2214207;66;1838;-72
2022/02/15 05:55:03;;;;;;;;;;;;;;;;;;2213782;59;1246;-72
2022/02/15 05:57:39;;;;;;;;;;;;;;;;;;2214208;66;1176;-72
2022/02/15 06:00:14;;;;;;;;;;;;;;;;;;2213456;59;1352;-72
2022/02/15 06:02:50;;;;;;;;;;;;;;;;;;2213635;66;1986;-72
2022/02/15 06:05:24;;;;;;;;;;;;;;;;;;2212944;59;1812;-72
2022/02/15 06:07:57;;;;;;;;;;;;;;;;;;2213431;59;1329;-72
2022/02/15 06:10:30;;;;;;;;;;;;;;;;;;2213529;66;1230;-72
2022/02/15 06:13:06;;;;;;;;;;;;;;;;;;2212623;66;1455;-72
2022/02/15 06:15:39;;;;;;;;;;;;;;;;;;2213518;66;1241;-72
2022/02/15 06:18:13;;;;;;;;;;;;;;;;;;2213149;59;1663;-72
2022/02/15 06:20:47;;;;;;;;;;;;;;;;;;2213851;59;1949;-72
2022/02/15 06:23:20;;;;;;;;;;;;;;;;;;2213169;66;1371;-72
2022/02/15 06:25:53;;;;;;;;;;;;;;;;;;2212966;59;1829;-72
2022/02/15 06:28:29;;;;;;;;;;;;;;;;;;2213452;66;1160;-72
2022/02/15 06:31:02;;;;;;;;;;;;;;;;;;2213129;58;1139;-72
2022/02/15 06:33:36;;;;;;;;;;;;;;;;;;2212511;59;1273;-72
2022/02/15 06:36:10;;;;;;;;;;;;;;;;;;2212736;59;1516;-72
2022/02/15 06:38:43;;;;;;;;;;;;;;;;;;2213187;66;1196;-72
2022/02/15 06:41:16;;;;;;;;;;;;;;;;;;2212770;66;1920;-72
2022/02/15 06:43:53;;;;;;;;;;;;;;;;;;2213421;66;1145;-72
2022/02/15 06:46:26;;;;;;;;;;;;;;;;;;2213200;59;1699;-72
2022/02/15 06:48:59;;;;;;;;;;;;;;;;;;2213762;59;1494;-72
2022/02/15 06:51:33;;;;;;;;;;;;;;;;;;2213757;67;1092;-72
2022/02/15 06:54:09;;;;;;;;;;;;;;;;;;2213780;66;1226;-72
2022/02/15 06:56:42;;;;;;;;;;;;;;;;;;2212582;59;2194;-72
2022/02/15 06:59:19;;;;;;;;;;;;;;;;;;2212817;59;2373;-72
2022/02/15 07:01:53;;;;;;;;;;;;;;;;;;2213193;66;1931;-72
2022/02/15 07:04:26;;;;;;;;;;;;;;;;;;2213553;66;1155;-72
2022/02/15 07:07:00;;;;;;;;;;;;;;;;;;2207535;59;2116;-72
2022/02/15 07:09:33;;;;;;;;;;;;;;;;;;2206521;59;1812;-72
2022/02/15 07:12:07;;;;;;;;;;;;;;;;;;2213456;59;1660;-72
2022/02/15 07:14:43;;;;;;;;;;;;;;;;;;2208031;59;1951;-72
2022/02/15 07:17:17;;;;;;;;;;;;;;;;;;2209844;59;2386;-73
2022/02/15 07:19:50;;;;;;;;;;;;;;;;;;2209885;59;2347;-73
2022/02/15 07:22:23;;;;;;;;;;;;;;;;;;2210637;59;2123;-72
2022/02/15 07:24:56;;;;;;;;;;;;;;;;;;2210773;59;1996;-72
2022/02/15 07:27:30;;;;;;;;;;;;;;;;;;2212522;59;1858;-72
2022/02/15 07:30:07;;;;;;;;;;;;;;;;;;2212552;66;1978;-72
2022/02/15 07:32:40;;;;;;;;;;;;;;;;;;2211926;59;1943;-73
2022/02/15 07:35:13;;;;;;;;;;;;;;;;;;2209274;59;2213;-72
2022/02/15 07:37:48;;;;;;;;;;;;;;;;;;2209088;59;1863;-72
2022/02/15 07:40:22;;;;;;;;;;;;;;;;;;2210085;59;1903;-72
2022/02/15 07:42:55;;;;;;;;;;;;;;;;;;2208388;59;1988;-72
2022/02/15 07:45:32;;;;;;;;;;;;;;;;;;2209865;59;1835;-72
2022/02/15 07:48:07;;;;;;;;;;;;;;;;;;2211740;59;1962;-72
2022/02/15 07:50:41;;;;;;;;;;;;;;;;;;2213921;59;1641;-72
2022/02/15 07:53:14;;;;;;;;;;;;;;;;;;2215552;59;1294;-72
2022/02/15 07:55:48;;;;;;;;;;;;;;;;;;2213746;59;1672;-72
2022/02/15 07:58:21;;;;;;;;;;;;;;;;;;2213366;59;1838;-72
2022/02/15 08:00:58;;;;;;;;;;;;;;;;;;2213359;59;2750;-73
2022/02/15 08:03:31;;;;;;;;;;;;;;;;;;2211605;66;2064;-72
2022/02/15 08:06:04;;;;;;;;;;;;;;;;;;2212202;59;2062;-73
2022/02/15 08:08:38;;;;;;;;;;;;;;;;;;2212195;59;2006;-72
2022/02/15 08:11:11;;;;;;;;;;;;;;;;;;2214701;66;1088;-72
2022/02/15 08:13:44;;;;;;;;;;;;;;;;;;2212352;59;2116;-72
2022/02/15 08:16:20;;;;;;;;;;;;;;;;;;2214347;59;1358;-72
2022/02/15 08:18:55;;;;;;;;;;;;;;;;;;2211907;59;2161;-72
2022/02/15 08:21:28;;;;;;;;;;;;;;;;;;2214999;59;2840;-72
2022/02/15 08:24:04;;;;;;;;;;;;;;;;;;2213508;59;1844;-72
2022/02/15 08:26:37;;;;;;;;;;;;;;;;;;2212406;59;1825;-72
2022/02/15 08:29:12;;;;;;;;;;;;;;;;;;2212843;59;2051;-72
2022/02/15 08:31:48;;;;;;;;;;;;;;;;;;2214097;59;1163;-72
2022/02/15 08:34:21;;;;;;;;;;;;;;;;;;2213492;59;1985;-72
2022/02/15 08:36:55;;;;;;;;;;;;;;;;;;2211797;59;2075;-72
2022/02/15 08:39:28;;;;;;;;;;;;;;;;;;2213328;67;1953;-72
2022/02/15 08:42:04;;;;;;;;;;;;;;;;;;2214465;59;1980;-72
2022/02/15 08:44:38;;;;;;;;;;;;;;;;;;2212143;59;2073;-73
2022/02/15 08:47:14;;;;;;;;;;;;;;;;;;2211907;59;1972;-72
2022/02/15 08:49:47;;;;;;;;;;;;;;;;;;2213637;59;2135;-73
2022/02/15 08:52:21;;;;;;;;;;;;;;;;;;2213598;59;1175;-73
2022/02/15 08:54:54;;;;;;;;;;;;;;;;;;2214277;66;1248;-73
2022/02/15 08:57:27;;;;;;;;;;;;;;;;;;2212656;58;1425;-73
2022/02/15 09:00:00;;;;;;;;;;;;;;;;;;2212666;58;1561;-73
2022/02/15 09:02:37;;;;;;;;;;;;;;;;;;2213331;62;1942;-73
2022/02/15 09:05:10;;;;;;;;;;;;;;;;;;2213591;59;1763;-73
2022/02/15 09:07:44;;;;;;;;;;;;;;;;;;2212425;59;2589;-73
2022/02/15 09:10:17;;;;;;;;;;;;;;;;;;2212751;66;1493;-73
2022/02/15 09:12:50;;;;;;;;;;;;;;;;;;2213956;59;1713;-73
2022/02/15 09:15:24;;;;;;;;;;;;;;;;;;2213588;59;1698;-73
2022/02/15 09:18:00;;;;;;;;;;;;;;;;;;2213340;58;1498;-73
2022/02/15 09:20:33;;;;;;;;;;;;;;;;;;2214505;59;1490;-73
2022/02/15 09:23:06;;;;;;;;;;;;;;;;;;2214467;59;2053;-74
2022/02/15 09:25:42;;;;;;;;;;;;;;;;;;2213921;59;1590;-73
2022/02/15 09:28:16;;;;;;;;;;;;;;;;;;2213932;66;1321;-74
2022/02/15 09:30:54;;;;;;;;;;;;;;;;;;2213860;59;1716;-73
2022/02/15 09:33:30;;;;;;;;;;;;;;;;;;2213821;66;1191;-73
2022/02/15 09:36:03;;;;;;;;;;;;;;;;;;2213332;59;1952;-74
2022/02/15 09:38:36;;;;;;;;;;;;;;;;;;2214383;59;1761;-73
2022/02/15 09:41:09;;;;;;;;;;;;;;;;;;2213586;59;1126;-73
2022/02/15 09:43:44;;;;;;;;;;;;;;;;;;2212489;59;1936;-74
2022/02/15 09:46:17;;;;;;;;;;;;;;;;;;2213391;59;1820;-74
2022/02/15 09:48:54;;;;;;;;;;;;;;;;;;2214097;59;1561;-73
2022/02/15 09:51:27;;;;;;;;;;;;;;;;;;2213483;59;1824;-73
2022/02/15 09:54:00;;;;;;;;;;;;;;;;;;2213940;59;1333;-73
2022/02/15 09:56:33;;;;;;;;;;;;;;;;;;2213724;59;1358;-74
2022/02/15 09:59:06;;;;;;;;;;;;;;;;;;2213669;59;1159;-74
2022/02/15 10:01:40;;;;;;;;;;;;;;;;;;2215272;66;1542;-73
2022/02/15 10:04:16;;;;;;;;;;;;;;;;;;2215429;66;1920;-74
2022/02/15 10:06:49;;;;;;;;;;;;;;;;;;2213029;59;2535;-73
2022/02/15 10:09:27;;;;;;;;;;;;;;;;;;2212573;59;2706;-74
2022/02/15 10:12:05;;;;;;;;;;;;;;;;;;2213781;66;1127;-74
2022/02/15 10:14:39;;;;;;;;;;;;;;;;;;2213085;59;1804;-74
2022/02/15 10:17:13;;;;;;;;;;;;;;;;;;2214219;59;1323;-74
2022/02/15 10:19:50;;;;;;;;;;;;;;;;;;2213674;66;1059;-74
2022/02/15 10:22:24;;;;;;;;;;;;;;;;;;2214095;59;1997;-74
2022/02/15 10:24:58;;;;;;;;;;;;;;;;;;2213566;59;1678;-72
2022/02/15 10:27:32;;;;;;;;;;;;;;;;;;2220182;53;2140;-70
2022/02/15 10:30:06;;;;;;;;;;;;;;;;;;2222432;58;1098;-70
2022/02/15 10:32:40;;;;;;;;;;;;;;;;;;2222583;58;1563;-69
2022/02/15 10:35:16;;;;;;;;;;;;;;;;;;2223223;59;1221;-69
2022/02/15 10:37:49;;;;;;;;;;;;;;;;;;2223284;58;1180;-69
2022/02/15 10:40:22;;;;;;;;;;;;;;;;;;2223817;66;1215;-69
2022/02/15 10:42:55;;;;;;;;;;;;;;;;;;2223879;58;1929;-69
2022/02/15 10:45:29;;;;;;;;;;;;;;;;;;2223823;58;1543;-69
2022/02/15 10:48:07;;;;;;;;;;;;;;;;;;2224126;58;1500;-70
2022/02/15 10:50:43;;;;;;;;;;;;;;;;;;2224093;66;1341;-69
2022/02/15 10:53:17;;;;;;;;;;;;;;;;;;2223899;58;1621;-69
2022/02/15 10:55:51;;;;;;;;;;;;;;;;;;2223525;58;1768;-69
2022/02/15 10:58:26;;;;;;;;;;;;;;;;;;2223717;59;1237;-69
2022/02/15 11:01:00;;;;;;;;;;;;;;;;;;2224819;58;1054;-69
2022/02/15 11:03:34;;;;;;;;;;;;;;;;;;2223565;66;1941;-69
2022/02/15 11:06:11;;;;;;;;;;;;;;;;;;2223591;58;1729;-69
2022/02/15 11:08:47;;;;;;;;;;;;;;;;;;2222415;59;2617;-69
2022/02/15 11:11:22;;;;;;;;;;;;;;;;;;2221475;58;2536;-69
2022/02/15 11:13:57;;;;;;;;;;;;;;;;;;2222918;66;1207;-69
2022/02/15 11:16:34;;;;;;;;;;;;;;;;;;2223516;58;1481;-70
2022/02/15 11:19:13;;;;;;;;;;;;;;;;;;2224374;58;1254;-69
2022/02/15 11:21:57;;;;;;;;;;;;;;;;;;2223052;58;1570;-69
2022/02/15 11:24:40;;;;;;;;;;;;;;;;;;2223068;58;1995;-70
2022/02/15 11:27:17;;;;;;;;;;;;;;;;;;2222998;58;1689;-70
2022/02/15 11:29:51;;;;;;;;;;;;;;;;;;2223432;58;1695;-69
2022/02/15 11:32:25;;;;;;;;;;;;;;;;;;2222340;66;1214;-69
2022/02/15 11:34:59;;;;;;;;;;;;;;;;;;2224166;58;1704;-70
2022/02/15 11:37:35;;;;;;;;;;;;;;;;;;2223328;58;1633;-69
2022/02/15 11:40:09;;;;;;;;;;;;;;;;;;2222855;59;1230;-69
2022/02/15 11:42:43;;;;;;;;;;;;;;;;;;2218989;58;1933;-70
2022/02/15 11:45:18;;;;;;;;;;;;;;;;;;2218218;58;1439;-69
2022/02/15 11:47:51;;;;;;;;;;;;;;;;;;2219088;58;1328;-69
2022/02/15 11:50:24;;;;;;;;;;;;;;;;;;2218661;66;1810;-70
2022/02/15 11:53:00;;;;;;;;;;;;;;;;;;2219381;58;1601;-69
2022/02/15 11:55:36;;;;;;;;;;;;;;;;;;2219234;66;1254;-70
2022/02/15 11:58:11;;;;;;;;;;;;;;;;;;2219682;66;1154;-69
2022/02/15 12:00:45;;;;;;;;;;;;;;;;;;2219962;59;1194;-69
2022/02/15 12:03:19;;;;;;;;;;;;;;;;;;2219897;66;1923;-70
2022/02/15 12:05:52;;;;;;;;;;;;;;;;;;2219151;58;1375;-69
2022/02/15 12:08:30;;;;;;;;;;;;;;;;;;2216430;59;1319;-69
2022/02/15 12:11:06;;;;;;;;;;;;;;;;;;2219662;66;1163;-69
2022/02/15 12:13:41;;;;;;;;;;;;;;;;;;2215764;59;3025;-69
2022/02/15 12:16:15;;;;;;;;;;;;;;;;;;2219716;58;1650;-69
2022/02/15 12:18:48;;;;;;;;;;;;;;;;;;2219734;66;1200;-70
2022/02/15 12:21:21;;;;;;;;;;;;;;;;;;2219930;58;1555;-70
2022/02/15 12:23:58;;;;;;;;;;;;;;;;;;2220039;66;1927;-70
2022/02/15 12:26:31;;;;;;;;;;;;;;;;;;2219436;58;1666;-70
2022/02/15 12:29:04;;;;;;;;;;;;;;;;;;2218259;59;1067;-70
2022/02/15 12:31:38;;;;;;;;;;;;;;;;;;2218783;66;1103;-70
2022/02/15 12:34:12;;;;;;;;;;;;;;;;;;2218883;59;1104;-70
2022/02/15 12:36:45;;;;;;;;;;;;;;;;;;2219277;66;1301;-70
2022/02/15 12:39:23;;;;;;;;;;;;;;;;;;2219952;66;1353;-70
2022/02/15 12:41:56;;;;;;;;;;;;;;;;;;2218788;58;1162;-70
2022/02/15 12:44:29;;;;;;;;;;;;;;;;;;2219301;58;1947;-69
2022/02/15 12:47:03;;;;;;;;;;;;;;;;;;2219361;58;1692;-70
2022/02/15 12:49:36;;;;;;;;;;;;;;;;;;2219218;58;1409;-69
2022/02/15 12:52:10;;;;;;;;;;;;;;;;;;2220011;66;1085;-70
2022/02/15 12:54:54;;;;;;;;;;;;;;;;;;2220038;66;1168;-70
2022/02/15 12:57:28;;;;;;;;;;;;;;;;;;2218678;58;1752;-70
2022/02/15 13:00:02;;;;;;;;;;;;;;;;;;2218875;66;1083;-70
2022/02/15 13:02:36;;;;;;;;;;;;;;;;;;2219954;59;1253;-70
2022/02/15 13:05:10;;;;;;;;;;;;;;;;;;2219525;66;1976;-70
2022/02/15 13:07:47;;;;;;;;;;;;;;;;;;2220420;58;2167;-70
2022/02/15 13:10:26;;;;;;;;;;;;;;;;;;2219670;66;1234;-70
2022/02/15 13:13:10;;;;;;;;;;;;;;;;;;2218036;66;1130;-70
2022/02/15 13:15:43;;;;;;;;;;;;;;;;;;2219349;58;1228;-70
2022/02/15 13:18:19;;;;;;;;;;;;;;;;;;2218764;58;1704;-70
2022/02/15 13:20:53;;;;;;;;;;;;;;;;;;2220557;58;1991;-70
2022/02/15 13:23:26;;;;;;;;;;;;;;;;;;2219029;58;1991;-70
2022/02/15 13:26:10;;;;;;;;;;;;;;;;;;2219643;58;2018;-70
2022/02/15 13:28:44;;;;;;;;;;;;;;;;;;2219498;66;1083;-69
2022/02/15 13:31:17;;;;;;;;;;;;;;;;;;2219057;66;1179;-70
2022/02/15 13:33:52;;;;;;;;;;;;;;;;;;2220315;66;1090;-69
2022/02/15 13:36:33;;;;;;;;;;;;;;;;;;2218462;58;1950;-69
2022/02/15 13:39:06;;;;;;;;;;;;;;;;;;2218154;66;1471;-69
2022/02/15 13:41:44;;;;;;;;;;;;;;;;;;2218572;58;1573;-69
2022/02/15 13:44:18;;;;;;;;;;;;;;;;;;2218666;66;1929;-70
2022/02/15 13:46:51;;;;;;;;;;;;;;;;;;2218719;58;2064;-69
2022/02/15 13:49:25;;;;;;;;;;;;;;;;;;2219227;66;1490;-70
2022/02/15 13:51:58;;;;;;;;;;;;;;;;;;2219722;66;1380;-70
2022/02/15 13:54:32;;;;;;;;;;;;;;;;;;2219985;59;1202;-70
2022/02/15 13:57:08;;;;;;;;;;;;;;;;;;2219538;58;1262;-70
2022/02/15 13:59:41;;;;;;;;;;;;;;;;;;2219917;58;1139;-70
2022/02/15 14:02:14;;;;;;;;;;;;;;;;;;2220692;66;1117;-70
2022/02/15 14:04:48;;;;;;;;;;;;;;;;;;2219340;66;1943;-70
2022/02/15 14:07:21;;;;;;;;;;;;;;;;;;2217917;58;1744;-70
2022/02/15 14:09:54;;;;;;;;;;;;;;;;;;2218801;66;1004;-70
2022/02/15 14:12:37;;;;;;;;;;;;;;;;;;2217910;66;1178;-70
2022/02/15 14:15:11;;;;;;;;;;;;;;;;;;2218382;66;1307;-70
2022/02/15 14:17:45;;;;;;;;;;;;;;;;;;2217989;58;1475;-70
2022/02/15 14:20:21;;;;;;;;;;;;;;;;;;2220336;58;1476;-70
2022/02/15 14:22:54;;;;;;;;;;;;;;;;;;2219484;66;1627;-70
2022/02/15 14:25:28;;;;;;;;;;;;;;;;;;2219421;58;1925;-70
2022/02/15 14:28:05;;;;;;;;;;;;;;;;;;2218760;66;1121;-70
2022/02/15 14:30:39;;;;;;;;;;;;;;;;;;2218331;66;1266;-70
2022/02/15 14:33:13;;;;;;;;;;;;;;;;;;2220360;66;1132;-70
2022/02/15 14:35:48;;;;;;;;;;;;;;;;;;2216000;59;1325;-70
2022/02/15 14:38:23;;;;;;;;;;;;;;;;;;2219855;66;1124;-70
2022/02/15 14:40:56;;;;;;;;;;;;;;;;;;2218343;66;1120;-70
2022/02/15 14:43:32;;;;;;;;;;;;;;;;;;2219104;66;1285;-70
2022/02/15 14:46:07;;;;;;;;;;;;;;;;;;2219380;58;1982;-71
2022/02/15 14:48:40;;;;;;;;;;;;;;;;;;2217955;58;1400;-70
2022/02/15 14:51:13;;;;;;;;;;;;;;;;;;2215734;66;1138;-70
2022/02/15 14:53:47;;;;;;;;;;;;;;;;;;2219912;66;1234;-70
2022/02/15 14:56:20;;;;;;;;;;;;;;;;;;2218254;59;1178;-70
2022/02/15 14:58:56;;;;;;;;;;;;;;;;;;2219031;66;1096;-70
2022/02/15 15:01:29;;;;;;;;;;;;;;;;;;2219848;58;1840;-70
2022/02/15 15:04:02;;;;;;;;;;;;;;;;;;2219983;58;1992;-70
2022/02/15 15:06:38;;;;;;;;;;;;;;;;;;2219457;58;2103;-70
2022/02/15 15:09:11;;;;;;;;;;;;;;;;;;2220000;66;1163;-70
2022/02/15 15:11:44;;;;;;;;;;;;;;;;;;2218144;59;1060;-71
2022/02/15 15:14:20;;;;;;;;;;;;;;;;;;2219925;58;1409;-70
2022/02/15 15:16:53;;;;;;;;;;;;;;;;;;2219396;58;1429;-70
2022/02/15 15:19:27;;;;;;;;;;;;;;;;;;2219655;59;1174;-70
2022/02/15 15:22:02;;;;;;;;;;;;;;;;;;2221218;58;1454;-70
2022/02/15 15:24:36;;;;;;;;;;;;;;;;;;2219869;66;1928;-70
2022/02/15 15:27:10;;;;;;;;;;;;;;;;;;2220267;58;1752;-70
2022/02/15 15:29:46;;;;;;;;;;;;;;;;;;2220685;66;1389;-70
2022/02/15 15:32:20;;;;;;;;;;;;;;;;;;2218769;58;1859;-70
2022/02/15 15:34:53;;;;;;;;;;;;;;;;;;2220090;66;1218;-70
2022/02/15 15:37:29;;;;;;;;;;;;;;;;;;2220204;66;1261;-70
2022/02/15 15:40:02;;;;;;;;;;;;;;;;;;2219840;66;1112;-70
2022/02/15 15:42:36;;;;;;;;;;;;;;;;;;2220934;58;1318;-70
2022/02/15 15:45:12;;;;;;;;;;;;;;;;;;2220191;58;1927;-71
2022/02/15 15:47:46;;;;;;;;;;;;;;;;;;2220141;58;1840;-70
2022/02/15 15:50:19;;;;;;;;;;;;;;;;;;2219964;58;1700;-70
2022/02/15 15:52:52;;;;;;;;;;;;;;;;;;2220468;58;1332;-70
2022/02/15 15:55:26;;;;;;;;;;;;;;;;;;2219762;59;1260;-71
2022/02/15 15:57:59;;;;;;;;;;;;;;;;;;2220089;66;1081;-70
2022/02/15 16:00:35;;;;;;;;;;;;;;;;;;2219707;66;1151;-70
2022/02/15 16:03:09;;;;;;;;;;;;;;;;;;2220245;66;1144;-70
2022/02/15 16:05:42;;;;;;;;;;;;;;;;;;2219480;58;1978;-70
2022/02/15 16:08:16;;;;;;;;;;;;;;;;;;2220205;66;1198;-70
2022/02/15 16:10:49;;;;;;;;;;;;;;;;;;2219246;66;1454;-70
2022/02/15 16:13:23;;;;;;;;;;;;;;;;;;2219026;58;1349;-70
2022/02/15 16:16:00;;;;;;;;;;;;;;;;;;2219963;58;1465;-71
2022/02/15 16:18:33;;;;;;;;;;;;;;;;;;2220770;58;1449;-70
2022/02/15 16:21:07;;;;;;;;;;;;;;;;;;2219533;58;1520;-70
2022/02/15 16:23:40;;;;;;;;;;;;;;;;;;2219550;58;1316;-70
2022/02/15 16:26:13;;;;;;;;;;;;;;;;;;2219544;53;3441;-70
2022/02/15 16:28:47;;;;;;;;;;;;;;;;;;2202209;59;1352;-70
2022/02/15 16:31:38;;;;;;;;;;;;;;;;;;2202938;59;1148;-70
2022/02/15 16:34:12;;;;;;;;;;;;;;;;;;2203136;59;1744;-70
2022/02/15 16:36:45;;;;;;;;;;;;;;;;;;2203411;59;1546;-70
2022/02/15 16:39:18;;;;;;;;;;;;;;;;;;2204042;67;1164;-69
2022/02/15 16:41:51;;;;;;;;;;;;;;;;;;2202555;67;1125;-70
2022/02/15 16:44:26;;;;;;;;;;;;;;;;;;2203236;59;1299;-70
2022/02/15 16:47:02;;;;;;;;;;;;;;;;;;2202408;59;2057;-69
2022/02/15 16:49:35;;;;;;;;;;;;;;;;;;2203172;67;1787;-70
2022/02/15 16:52:08;;;;;;;;;;;;;;;;;;2203118;59;1536;-70
2022/02/15 16:54:42;;;;;;;;;;;;;;;;;;2202944;67;2179;-69
2022/02/15 16:57:15;;;;;;;;;;;;;;;;;;2203257;59;1526;-69
2022/02/15 16:59:48;;;;;;;;;;;;;;;;;;2202756;67;1117;-70
2022/02/15 17:02:24;;;;;;;;;;;;;;;;;;2202571;59;1536;-69
2022/02/15 17:04:57;;;;;;;;;;;;;;;;;;2203281;59;1926;-69
2022/02/15 17:07:31;;;;;;;;;;;;;;;;;;2202371;59;1694;-70
2022/02/15 17:10:05;;;;;;;;;;;;;;;;;;2203412;67;1137;-69
2022/02/15 17:12:38;;;;;;;;;;;;;;;;;;2202567;59;1068;-70
2022/02/15 17:15:12;;;;;;;;;;;;;;;;;;2203432;59;1408;-69
2022/02/15 17:17:48;;;;;;;;;;;;;;;;;;2202269;59;1842;-69
2022/02/15 17:20:21;;;;;;;;;;;;;;;;;;2203262;59;1534;-69
2022/02/15 17:22:55;;;;;;;;;;;;;;;;;;2203034;59;1226;-70
2022/02/15 17:25:28;;;;;;;;;;;;;;;;;;2203788;59;1974;-70
2022/02/15 17:28:01;;;;;;;;;;;;;;;;;;2202119;59;1257;-70
2022/02/15 17:30:34;;;;;;;;;;;;;;;;;;2203468;67;1292;-69
2022/02/15 17:33:11;;;;;;;;;;;;;;;;;;2203873;67;1132;-69
2022/02/15 17:35:44;;;;;;;;;;;;;;;;;;2203027;67;1121;-71
2022/02/15 17:38:17;;;;;;;;;;;;;;;;;;2202632;59;1915;-70
2022/02/15 17:40:51;;;;;;;;;;;;;;;;;;2202382;59;1165;-70
2022/02/15 17:43:24;;;;;;;;;;;;;;;;;;2203052;59;1203;-70
2022/02/15 17:45:57;;;;;;;;;;;;;;;;;;2202999;59;1977;-70
2022/02/15 17:48:33;;;;;;;;;;;;;;;;;;2203589;59;1573;-70
2022/02/15 17:51:06;;;;;;;;;;;;;;;;;;2203208;67;1180;-69
2022/02/15 17:53:42;;;;;;;;;;;;;;;;;;2202502;67;1134;-69